Time;durP1;ratioP1;P1;durP2;ratioP2;P2;SDS_P1;SDS_P2;PMS_P1;PMS_P2;Temp;Humidity;BMP_temperature;BMP_pressure;BME280_temperature;BME280_humidity;BME280_pressure;Samples;Min_cycle;Max_cycle;Signal;HPM_P1;HPM_P2
2023/08/20 00:01:23;;;;;;;9.98;5.53;;;21.00;99.90;;;;;;4902649;29;20188;-92
2023/08/20 00:03:50;;;;;;;11.50;5.28;;;21.00;99.90;;;;;;4902276;29;20059;-91
2023/08/20 00:06:16;;;;;;;9.27;4.65;;;21.00;99.90;;;;;;4904257;29;20044;-91
2023/08/20 00:08:42;;;;;;;10.02;5.00;;;20.90;99.90;;;;;;4902725;29;20029;-91
2023/08/20 00:11:08;;;;;;;10.43;5.03;;;20.90;99.90;;;;;;4903293;29;20036;-90
2023/08/20 00:13:34;;;;;;;9.40;5.18;;;20.90;99.90;;;;;;4903496;29;20499;-91
2023/08/20 00:16:00;;;;;;;9.10;5.10;;;20.90;99.90;;;;;;4902919;29;20031;-91
2023/08/20 00:18:26;;;;;;;10.77;6.00;;;20.90;99.90;;;;;;4902278;29;20028;-91
2023/08/20 00:20:53;;;;;;;10.75;5.05;;;20.90;99.90;;;;;;4901533;29;20119;-91
2023/08/20 00:23:18;;;;;;;9.73;4.97;;;20.90;99.90;;;;;;4902061;29;20040;-91
2023/08/20 00:25:44;;;;;;;10.68;4.90;;;20.90;99.90;;;;;;4903626;29;20137;-91
2023/08/20 00:28:10;;;;;;;10.85;6.28;;;20.90;99.90;;;;;;4903305;29;20032;-91
2023/08/20 00:30:35;;;;;;;11.50;6.10;;;20.90;99.90;;;;;;4900727;29;20036;-91
2023/08/20 00:33:01;;;;;;;11.50;5.90;;;20.90;99.90;;;;;;4900382;29;20064;-91
2023/08/20 00:35:27;;;;;;;10.07;5.60;;;20.80;99.90;;;;;;4900639;29;20035;-91
2023/08/20 00:37:53;;;;;;;11.35;5.30;;;20.80;99.90;;;;;;4903335;29;20032;-91
2023/08/20 00:40:18;;;;;;;10.85;5.80;;;20.80;99.90;;;;;;4903051;29;20043;-91
2023/08/20 00:42:44;;;;;;;12.23;5.25;;;20.80;99.90;;;;;;4901859;29;20055;-91
2023/08/20 00:45:13;;;;;;;9.70;4.80;;;20.80;99.90;;;;;;4903999;29;20138;-91
2023/08/20 00:47:40;;;;;;;11.75;5.63;;;20.80;99.90;;;;;;4922402;29;20069;-92
2023/08/20 00:50:09;;;;;;;10.07;5.55;;;20.80;99.90;;;;;;4901943;29;20044;-91
2023/08/20 00:52:35;;;;;;;12.70;5.95;;;20.80;99.90;;;;;;4904259;29;20027;-91
2023/08/20 00:55:07;;;;;;;16.20;6.25;;;20.80;99.90;;;;;;4902610;29;20031;-91
2023/08/20 00:57:34;;;;;;;14.38;6.60;;;20.80;99.90;;;;;;4901330;29;20028;-91
2023/08/20 01:00:00;;;;;;;11.98;5.82;;;20.80;99.90;;;;;;4901467;29;20032;-91
2023/08/20 01:02:26;;;;;;;13.93;6.35;;;20.80;99.90;;;;;;4901805;29;20040;-91
2023/08/20 01:04:52;;;;;;;14.15;5.88;;;20.70;99.90;;;;;;4900972;29;20043;-90
2023/08/20 01:07:30;;;;;;;9.40;5.75;;;20.70;99.90;;;;;;4901815;29;20361;-92
2023/08/20 01:10:05;;;;;;;9.57;5.88;;;20.70;99.90;;;;;;4901976;29;20031;-91
2023/08/20 01:12:33;;;;;;;10.20;5.97;;;20.70;99.90;;;;;;4902376;29;20395;-91
2023/08/20 01:14:58;;;;;;;14.38;6.18;;;20.60;99.90;;;;;;4901695;29;20024;-91
2023/08/20 01:17:24;;;;;;;9.93;6.07;;;20.60;99.90;;;;;;4900822;29;20033;-91
2023/08/20 01:19:50;;;;;;;12.10;6.22;;;20.60;99.90;;;;;;4900900;29;20032;-91
2023/08/20 01:22:26;;;;;;;9.98;5.32;;;20.60;99.90;;;;;;4901784;29;20084;-90
2023/08/20 01:25:24;;;;;;;12.30;5.93;;;20.50;99.90;;;;;;4900890;29;20365;-92
2023/08/20 01:28:02;;;;;;;9.82;5.30;;;20.50;99.90;;;;;;4901761;29;20031;-91
2023/08/20 01:30:28;;;;;;;9.75;5.18;;;20.40;99.90;;;;;;4900837;29;20032;-91
2023/08/20 01:32:54;;;;;;;12.88;5.60;;;20.40;99.90;;;;;;4902283;29;20032;-92
2023/08/20 01:35:22;;;;;;;9.52;5.05;;;20.40;99.90;;;;;;4902968;29;20032;-91
2023/08/20 01:37:47;;;;;;;9.90;5.57;;;20.30;99.90;;;;;;4900211;29;20029;-91
2023/08/20 01:40:13;;;;;;;16.88;5.93;;;20.30;99.90;;;;;;4902761;29;20024;-91
2023/08/20 01:42:40;;;;;;;14.48;6.20;;;20.20;99.90;;;;;;4902346;29;20768;-91
2023/08/20 01:45:06;;;;;;;8.85;5.15;;;20.20;99.90;;;;;;4901564;29;20032;-91
2023/08/20 01:47:33;;;;;;;8.02;5.30;;;20.20;99.90;;;;;;4900185;29;20266;-91
2023/08/20 01:49:58;;;;;;;16.70;6.03;;;20.10;99.90;;;;;;4901392;29;20052;-91
2023/08/20 01:52:24;;;;;;;10.43;5.07;;;20.10;99.90;;;;;;4902562;29;20070;-91
2023/08/20 01:54:50;;;;;;;9.07;5.00;;;20.10;99.90;;;;;;4902694;29;20020;-91
2023/08/20 01:57:16;;;;;;;10.75;5.18;;;20.10;99.90;;;;;;4901635;29;20056;-91
2023/08/20 01:59:42;;;;;;;12.43;5.35;;;20.00;99.90;;;;;;4902567;29;20020;-91
2023/08/20 02:02:08;;;;;;;9.05;5.05;;;20.00;99.90;;;;;;4902344;29;20081;-91
2023/08/20 02:04:33;;;;;;;11.65;5.20;;;20.00;99.90;;;;;;4902225;29;20024;-92
2023/08/20 02:06:59;;;;;;;6.90;4.72;;;20.00;99.90;;;;;;4902073;29;20036;-91
2023/08/20 02:09:25;;;;;;;6.97;4.47;;;19.90;99.90;;;;;;4903066;29;20035;-91
2023/08/20 02:11:51;;;;;;;12.00;5.30;;;19.90;99.90;;;;;;4903485;29;20032;-91
2023/08/20 02:14:17;;;;;;;8.98;4.65;;;19.90;99.90;;;;;;4904677;29;20032;-91
2023/08/20 02:16:46;;;;;;;14.77;4.93;;;19.80;99.90;;;;;;4900942;29;20038;-92
2023/08/20 02:19:11;;;;;;;9.80;4.65;;;19.80;99.90;;;;;;4901031;29;21391;-92
2023/08/20 02:21:37;;;;;;;10.25;4.50;;;19.70;99.90;;;;;;4901109;29;20041;-91
2023/08/20 02:24:03;;;;;;;7.50;4.65;;;19.70;99.90;;;;;;4900471;29;20711;-91
2023/08/20 02:26:28;;;;;;;6.65;4.45;;;19.70;99.90;;;;;;4901277;29;20043;-92
2023/08/20 02:28:54;;;;;;;7.47;4.13;;;19.60;99.90;;;;;;4902484;29;20029;-91
2023/08/20 02:31:19;;;;;;;8.75;4.53;;;19.60;99.90;;;;;;4905510;29;20119;-92
2023/08/20 02:33:45;;;;;;;5.63;4.00;;;19.60;99.90;;;;;;4906064;29;20043;-92
2023/08/20 02:36:11;;;;;;;10.90;4.80;;;19.50;99.90;;;;;;4906536;29;20031;-91
2023/08/20 02:38:36;;;;;;;9.38;4.80;;;19.50;99.90;;;;;;4907339;29;20471;-91
2023/08/20 02:41:05;;;;;;;5.15;4.03;;;19.40;99.90;;;;;;4906230;29;20043;-91
2023/08/20 02:43:30;;;;;;;9.45;4.55;;;19.40;99.90;;;;;;4906415;29;20381;-91
2023/08/20 02:45:56;;;;;;;13.18;4.65;;;19.40;99.90;;;;;;4908497;29;20029;-91
2023/08/20 02:48:28;;;;;;;10.82;4.13;;;19.30;99.90;;;;;;4910597;29;20047;-91
2023/08/20 02:50:56;;;;;;;13.93;4.68;;;19.30;99.90;;;;;;4906085;29;20039;-92
2023/08/20 02:53:22;;;;;;;10.75;4.43;;;19.20;99.90;;;;;;4904948;29;20710;-92
2023/08/20 02:55:48;;;;;;;12.43;4.45;;;19.20;99.90;;;;;;4903654;29;20123;-92
2023/08/20 02:58:16;;;;;;;8.38;4.82;;;19.10;99.90;;;;;;4903449;29;20028;-93
2023/08/20 03:00:44;;;;;;;10.45;5.50;;;19.00;99.90;;;;;;4904276;29;20083;-90
2023/08/20 03:03:10;;;;;;;7.10;5.28;;;19.00;99.90;;;;;;4905129;29;20032;-92
2023/08/20 03:05:36;;;;;;;8.30;4.90;;;19.00;99.90;;;;;;4903766;29;20392;-91
2023/08/20 03:08:05;;;;;;;11.00;5.50;;;18.90;99.90;;;;;;4905047;29;20028;-91
2023/08/20 03:10:33;;;;;;;8.45;5.35;;;18.90;99.90;;;;;;4904260;29;20984;-92
2023/08/20 03:13:09;;;;;;;10.60;5.20;;;18.90;99.90;;;;;;4904229;29;20028;-92
2023/08/20 03:15:35;;;;;;;10.05;5.32;;;18.90;99.90;;;;;;4904898;29;20040;-92
2023/08/20 03:18:03;;;;;;;11.90;5.35;;;18.80;99.90;;;;;;4905854;29;20024;-91
2023/08/20 03:20:34;;;;;;;13.48;5.13;;;18.80;99.90;;;;;;4904341;29;20094;-92
2023/08/20 03:23:02;;;;;;;11.07;5.72;;;18.80;99.90;;;;;;4903715;29;20753;-91
2023/08/20 03:25:28;;;;;;;10.35;4.65;;;18.80;99.90;;;;;;4904463;29;20032;-91
2023/08/20 03:27:56;;;;;;;7.55;4.82;;;18.70;99.90;;;;;;4903634;29;20024;-91
2023/08/20 03:30:22;;;;;;;11.73;5.07;;;18.70;99.90;;;;;;4904055;29;20034;-91
2023/08/20 03:32:48;;;;;;;7.68;5.18;;;18.70;99.90;;;;;;4903624;29;20028;-92
2023/08/20 03:35:16;;;;;;;11.18;5.07;;;18.60;99.90;;;;;;4902925;29;20072;-92
2023/08/20 03:37:45;;;;;;;11.38;4.80;;;18.60;99.90;;;;;;4904824;29;20048;-91
2023/08/20 03:40:18;;;;;;;8.52;5.18;;;18.60;99.90;;;;;;4903105;29;20115;-92
2023/08/20 03:42:46;;;;;;;6.85;4.88;;;18.60;99.90;;;;;;4904618;29;20032;-92
2023/08/20 03:45:14;;;;;;;10.35;4.90;;;18.60;99.90;;;;;;4903634;29;21464;-92
2023/08/20 03:47:47;;;;;;;9.38;4.70;;;18.60;99.90;;;;;;4904069;29;20051;-92
2023/08/20 03:50:15;;;;;;;8.65;4.65;;;18.60;99.90;;;;;;4902671;29;20028;-91
2023/08/20 03:52:45;;;;;;;8.70;4.78;;;18.60;99.90;;;;;;4905105;29;21383;-91
2023/08/20 03:55:11;;;;;;;12.77;5.32;;;18.50;99.90;;;;;;4903766;29;20035;-91
2023/08/20 03:57:36;;;;;;;10.02;5.10;;;18.50;99.90;;;;;;4902761;29;20032;-91
2023/08/20 04:00:08;;;;;;;8.80;4.78;;;18.50;99.90;;;;;;4904223;29;20054;-92
2023/08/20 04:02:34;;;;;;;7.85;4.90;;;18.40;99.90;;;;;;4904080;29;21036;-93
2023/08/20 04:05:05;;;;;;;10.45;5.32;;;18.40;99.90;;;;;;4903953;29;20029;-92
2023/08/20 04:07:31;;;;;;;12.95;5.57;;;18.40;99.90;;;;;;4902249;29;20031;-92
2023/08/20 04:09:57;;;;;;;8.30;5.38;;;18.40;99.90;;;;;;4904974;29;20032;-92
2023/08/20 04:12:24;;;;;;;9.52;4.95;;;18.40;99.90;;;;;;4904759;29;20047;-92
2023/08/20 04:14:52;;;;;;;8.07;5.38;;;18.40;99.90;;;;;;4905155;29;20035;-92
2023/08/20 04:17:18;;;;;;;13.05;5.32;;;18.30;99.90;;;;;;4901632;29;20024;-91
2023/08/20 04:19:46;;;;;;;14.10;5.32;;;18.40;99.90;;;;;;4902366;29;20039;-92
2023/08/20 04:22:14;;;;;;;11.38;5.25;;;18.30;99.90;;;;;;4904696;29;20032;-91
2023/08/20 04:24:45;;;;;;;10.98;5.30;;;18.30;99.90;;;;;;4903566;29;20052;-91
2023/08/20 04:27:11;;;;;;;8.25;5.32;;;18.30;99.90;;;;;;4900182;29;20024;-77
2023/08/20 04:29:36;;;;;;;9.32;5.53;;;18.30;99.90;;;;;;4899603;29;20092;-77
2023/08/20 04:32:02;;;;;;;9.50;4.88;;;18.30;99.90;;;;;;4898439;29;20024;-77
2023/08/20 04:34:28;;;;;;;9.30;5.40;;;18.30;99.90;;;;;;4898225;29;20024;-77
2023/08/20 04:36:53;;;;;;;12.27;5.40;;;18.30;99.90;;;;;;4897077;29;21399;-77
2023/08/20 04:39:19;;;;;;;8.95;5.20;;;18.30;99.90;;;;;;4898247;29;20040;-77
2023/08/20 04:41:44;;;;;;;10.15;5.28;;;18.30;99.90;;;;;;4898016;29;20091;-77
2023/08/20 04:44:10;;;;;;;7.47;5.10;;;18.30;99.90;;;;;;4903160;29;21366;-78
2023/08/20 04:46:36;;;;;;;7.38;4.68;;;18.30;99.90;;;;;;4897805;29;20028;-78
2023/08/20 04:49:01;;;;;;;11.95;5.50;;;18.30;99.90;;;;;;4898982;29;20503;-77
2023/08/20 04:51:27;;;;;;;9.27;5.40;;;18.30;99.90;;;;;;4897284;29;20039;-77
2023/08/20 04:53:52;;;;;;;8.32;4.68;;;18.30;99.90;;;;;;4897617;29;20169;-77
2023/08/20 04:56:18;;;;;;;9.45;5.22;;;18.30;99.90;;;;;;4896977;29;20131;-77
2023/08/20 04:58:44;;;;;;;7.88;4.97;;;18.30;99.90;;;;;;4897558;29;20068;-76
2023/08/20 05:01:09;;;;;;;8.95;5.20;;;18.30;99.90;;;;;;4898397;29;20044;-76
2023/08/20 05:03:35;;;;;;;12.98;5.30;;;18.30;99.90;;;;;;4899053;29;20091;-76
2023/08/20 05:06:03;;;;;;;9.75;5.18;;;18.30;99.90;;;;;;4896596;29;20056;-75
2023/08/20 05:08:28;;;;;;;10.52;5.03;;;18.30;99.90;;;;;;4896990;29;20043;-75
2023/08/20 05:10:54;;;;;;;8.50;5.05;;;18.30;99.90;;;;;;4898065;29;20028;-75
2023/08/20 05:13:20;;;;;;;12.60;5.47;;;18.30;99.90;;;;;;4899704;29;20036;-76
2023/08/20 05:15:46;;;;;;;6.63;4.47;;;18.40;99.90;;;;;;4896816;29;20510;-76
2023/08/20 05:18:12;;;;;;;13.77;4.95;;;18.40;99.90;;;;;;4898331;29;20036;-77
2023/08/20 05:20:39;;;;;;;6.80;5.20;;;18.40;99.90;;;;;;4898054;29;20041;-77
2023/08/20 05:23:05;;;;;;;11.65;5.05;;;18.40;99.90;;;;;;4899723;29;20137;-77
2023/08/20 05:25:31;;;;;;;9.52;5.22;;;18.40;99.90;;;;;;4897388;29;20032;-77
2023/08/20 05:27:56;;;;;;;9.10;5.15;;;18.50;99.90;;;;;;4897576;29;20084;-77
2023/08/20 05:30:22;;;;;;;12.45;4.80;;;18.60;99.90;;;;;;4900175;29;20025;-76
2023/08/20 05:32:47;;;;;;;8.90;4.80;;;18.60;99.90;;;;;;4897198;29;20476;-77
2023/08/20 05:35:13;;;;;;;9.93;4.82;;;18.70;99.90;;;;;;4897668;29;20082;-77
2023/08/20 05:37:38;;;;;;;8.20;5.47;;;18.80;99.90;;;;;;4898076;29;20153;-76
2023/08/20 05:40:05;;;;;;;10.48;4.80;;;18.90;99.90;;;;;;4899459;29;20078;-77
2023/08/20 05:42:30;;;;;;;9.20;5.30;;;19.00;99.90;;;;;;4898594;29;20054;-77
2023/08/20 05:44:56;;;;;;;11.73;4.55;;;19.10;99.90;;;;;;4896226;29;20488;-76
2023/08/20 05:47:21;;;;;;;10.88;5.03;;;19.20;99.90;;;;;;4895512;29;20627;-77
2023/08/20 05:49:47;;;;;;;11.77;5.20;;;19.40;99.90;;;;;;4897361;29;20039;-77
2023/08/20 05:52:12;;;;;;;9.02;4.90;;;19.50;99.90;;;;;;4899152;29;20028;-77
2023/08/20 05:54:38;;;;;;;12.00;5.47;;;19.70;99.90;;;;;;4894883;29;20028;-77
2023/08/20 05:57:03;;;;;;;11.02;4.63;;;19.80;99.90;;;;;;4896336;29;20028;-77
2023/08/20 05:59:29;;;;;;;17.40;4.95;;;19.90;99.90;;;;;;4896499;29;20108;-77
2023/08/20 06:01:54;;;;;;;10.65;5.22;;;20.10;99.90;;;;;;4896061;29;20541;-76
2023/08/20 06:04:21;;;;;;;9.02;4.95;;;20.20;99.90;;;;;;4898657;29;20135;-76
2023/08/20 06:06:46;;;;;;;8.98;4.93;;;20.40;99.90;;;;;;4901105;29;20032;-77
2023/08/20 06:09:12;;;;;;;11.55;4.65;;;20.60;99.90;;;;;;4900927;29;20407;-78
2023/08/20 06:11:37;;;;;;;8.55;5.28;;;20.70;99.90;;;;;;4901583;29;20074;-77
2023/08/20 06:14:03;;;;;;;6.65;5.05;;;20.90;99.90;;;;;;4899350;29;20111;-76
2023/08/20 06:16:28;;;;;;;8.45;4.63;;;21.00;99.90;;;;;;4900431;29;20111;-77
2023/08/20 06:18:54;;;;;;;10.25;5.03;;;21.10;99.90;;;;;;4901824;29;20703;-77
2023/08/20 06:21:19;;;;;;;10.32;4.60;;;21.10;99.90;;;;;;4901877;29;20032;-79
2023/08/20 06:23:45;;;;;;;7.78;4.57;;;21.20;99.90;;;;;;4901659;29;20027;-77
2023/08/20 06:26:11;;;;;;;8.65;4.78;;;21.30;99.90;;;;;;4901982;29;20032;-77
2023/08/20 06:28:37;;;;;;;11.43;4.65;;;21.30;99.90;;;;;;4900961;29;20040;-77
2023/08/20 06:31:02;;;;;;;14.52;5.13;;;21.40;99.90;;;;;;4902463;29;20028;-78
2023/08/20 06:33:28;;;;;;;9.27;5.13;;;21.40;99.90;;;;;;4900369;29;20033;-77
2023/08/20 06:35:53;;;;;;;10.75;5.32;;;21.50;99.90;;;;;;4900259;29;20084;-77
2023/08/20 06:38:19;;;;;;;11.30;5.97;;;21.50;99.90;;;;;;4899326;29;20024;-77
2023/08/20 06:40:44;;;;;;;10.98;5.20;;;21.60;99.90;;;;;;4899597;29;20032;-77
2023/08/20 06:43:10;;;;;;;11.68;5.00;;;21.70;99.90;;;;;;4902219;29;20035;-78
2023/08/20 06:45:36;;;;;;;8.77;4.97;;;21.80;99.90;;;;;;4902147;29;20028;-77
2023/08/20 06:48:01;;;;;;;10.95;4.68;;;21.90;99.90;;;;;;4900094;29;20107;-76
2023/08/20 06:50:27;;;;;;;13.57;5.25;;;22.00;99.90;;;;;;4900039;29;20061;-77
2023/08/20 06:52:52;;;;;;;10.38;5.00;;;22.10;99.90;;;;;;4900628;29;20407;-76
2023/08/20 06:55:18;;;;;;;10.20;4.57;;;22.20;99.90;;;;;;4900397;29;20729;-76
2023/08/20 06:57:43;;;;;;;14.90;5.05;;;22.30;99.90;;;;;;4900792;29;20035;-76
2023/08/20 07:00:09;;;;;;;10.05;5.07;;;22.40;99.90;;;;;;4899522;29;20043;-76
2023/08/20 07:02:35;;;;;;;9.93;4.80;;;22.60;99.90;;;;;;4901227;29;20048;-76
2023/08/20 07:05:00;;;;;;;10.20;4.53;;;22.60;99.90;;;;;;4898885;29;20039;-77
2023/08/20 07:07:26;;;;;;;11.80;4.60;;;22.80;99.90;;;;;;4899771;29;20072;-77
2023/08/20 07:09:51;;;;;;;7.45;4.18;;;22.90;99.90;;;;;;4902902;29;20032;-77
2023/08/20 07:12:17;;;;;;;9.27;4.35;;;23.10;99.90;;;;;;4902143;29;20487;-76
2023/08/20 07:14:42;;;;;;;8.75;4.50;;;23.20;99.90;;;;;;4900223;29;20040;-77
2023/08/20 07:17:08;;;;;;;9.00;4.85;;;23.30;99.90;;;;;;4898663;29;20036;-76
2023/08/20 07:19:33;;;;;;;10.27;4.18;;;23.30;99.90;;;;;;4899139;29;20042;-76
2023/08/20 07:21:59;;;;;;;15.02;4.28;;;23.50;99.90;;;;;;4900693;29;20032;-87
2023/08/20 07:24:29;;;;;;;7.47;4.10;;;23.50;99.90;;;;;;4900862;29;21047;-87
2023/08/20 07:27:00;;;;;;;11.98;4.40;;;23.60;99.90;;;;;;4897628;29;20024;-87
2023/08/20 07:29:26;;;;;;;10.60;4.60;;;23.70;99.90;;;;;;4898885;29;20661;-87
2023/08/20 07:31:52;;;;;;;13.38;4.60;;;23.80;99.90;;;;;;4899272;29;20037;-87
2023/08/20 07:34:18;;;;;;;8.15;4.00;;;23.90;99.90;;;;;;4899127;29;20055;-87
2023/08/20 07:36:44;;;;;;;7.35;3.83;;;24.00;99.90;;;;;;4898968;29;20032;-91
2023/08/20 07:39:09;;;;;;;12.68;5.05;;;24.10;99.90;;;;;;4900090;29;20028;-75
2023/08/20 07:41:36;;;;;;;11.73;4.25;;;24.10;99.90;;;;;;4901363;29;20038;-91
2023/08/20 07:44:02;;;;;;;8.60;4.80;;;24.20;99.90;;;;;;4897648;29;20401;-86
2023/08/20 07:46:28;;;;;;;7.50;4.07;;;24.40;99.90;;;;;;4898183;29;20032;-87
2023/08/20 07:48:54;;;;;;;11.55;4.40;;;24.50;99.90;;;;;;4900029;29;20476;-86
2023/08/20 07:51:20;;;;;;;9.35;4.50;;;24.60;99.90;;;;;;4900543;29;20040;-87
2023/08/20 07:53:45;;;;;;;7.07;4.25;;;24.70;99.90;;;;;;4899970;29;20465;-86
2023/08/20 07:56:11;;;;;;;9.80;3.95;;;24.70;99.90;;;;;;4898744;29;20036;-87
2023/08/20 07:58:36;;;;;;;11.98;4.78;;;24.70;99.90;;;;;;4898944;29;20958;-86
2023/08/20 08:01:02;;;;;;;10.25;4.25;;;24.90;99.90;;;;;;4897521;29;20079;-86
2023/08/20 08:03:28;;;;;;;10.25;3.70;;;25.00;99.90;;;;;;4899021;29;20057;-86
2023/08/20 08:05:54;;;;;;;10.00;3.90;;;25.00;99.90;;;;;;4898882;29;20392;-86
2023/08/20 08:08:21;;;;;;;9.65;4.60;;;25.10;99.90;;;;;;4898871;29;20048;-87
2023/08/20 08:10:47;;;;;;;10.80;4.40;;;25.20;99.90;;;;;;4897688;29;20032;-86
2023/08/20 08:13:14;;;;;;;10.35;4.20;;;25.30;99.90;;;;;;4898425;29;20032;-86
2023/08/20 08:15:39;;;;;;;8.48;4.30;;;25.40;99.90;;;;;;4898906;29;20551;-87
2023/08/20 08:18:05;;;;;;;9.80;4.53;;;25.50;99.90;;;;;;4899548;29;20032;-86
2023/08/20 08:20:31;;;;;;;10.10;4.28;;;25.50;99.90;;;;;;4899360;29;20496;-87
2023/08/20 08:22:56;;;;;;;9.80;4.28;;;25.60;99.90;;;;;;4898402;29;20428;-86
2023/08/20 08:25:22;;;;;;;8.45;4.13;;;25.60;99.90;;;;;;4899552;29;20044;-87
2023/08/20 08:27:48;;;;;;;14.57;4.53;;;25.70;99.90;;;;;;4896655;29;20032;-86
2023/08/20 08:30:14;;;;;;;8.23;4.18;;;25.80;99.90;;;;;;4897164;29;20028;-86
2023/08/20 08:32:40;;;;;;;10.82;4.75;;;25.90;99.90;;;;;;4899237;29;20039;-87
2023/08/20 08:35:06;;;;;;;8.73;4.35;;;26.00;99.90;;;;;;4898997;29;20638;-86
2023/08/20 08:37:32;;;;;;;7.15;4.35;;;26.10;99.90;;;;;;4898504;29;20035;-86
2023/08/20 08:39:57;;;;;;;9.13;3.92;;;26.20;99.90;;;;;;4898248;29;20061;-86
2023/08/20 08:42:23;;;;;;;6.90;4.18;;;26.30;99.90;;;;;;4897900;29;20048;-86
2023/08/20 08:44:52;;;;;;;9.20;4.03;;;26.40;99.90;;;;;;4898158;29;20032;-86
2023/08/20 08:47:22;;;;;;;12.63;5.13;;;26.50;99.90;;;;;;4896749;29;20103;-87
2023/08/20 08:49:49;;;;;;;8.10;3.95;;;26.60;99.90;;;;;;4897302;29;20134;-86
2023/08/20 08:52:16;;;;;;;7.55;3.65;;;26.80;99.90;;;;;;4897192;29;20406;-86
2023/08/20 08:54:42;;;;;;;7.13;3.85;;;26.90;99.90;;;;;;4897232;29;20025;-86
2023/08/20 08:57:08;;;;;;;6.68;3.80;;;27.10;99.90;;;;;;4896623;29;20036;-86
2023/08/20 08:59:33;;;;;;;8.73;3.95;;;27.10;99.90;;;;;;4897071;29;20032;-86
2023/08/20 09:01:59;;;;;;;7.60;3.78;;;27.30;99.90;;;;;;4898215;29;20403;-86
2023/08/20 09:04:25;;;;;;;9.25;3.85;;;27.40;99.90;;;;;;4898628;29;20056;-87
2023/08/20 09:06:52;;;;;;;6.40;3.50;;;27.50;99.90;;;;;;4897337;29;20120;-87
2023/08/20 09:09:19;;;;;;;10.82;4.40;;;27.70;99.90;;;;;;4900057;29;20032;-86
2023/08/20 09:11:46;;;;;;;8.82;3.70;;;27.90;99.90;;;;;;4899041;29;20033;-87
2023/08/20 09:14:28;;;;;;;10.70;4.32;;;28.10;99.90;;;;;;4897087;29;20120;-86
2023/08/20 09:16:58;;;;;;;7.65;3.70;;;28.30;99.90;;;;;;4895612;29;20056;-86
2023/08/20 09:19:24;;;;;;;6.97;3.88;;;28.50;99.90;;;;;;4896465;29;20445;-87
2023/08/20 09:21:52;;;;;;;10.50;3.90;;;28.60;99.90;;;;;;4898689;29;20043;-86
2023/08/20 09:24:26;;;;;;;8.57;3.38;;;28.80;99.90;;;;;;4897170;29;20031;-86
2023/08/20 09:26:58;;;;;;;8.10;3.55;;;29.10;99.90;;;;;;4898105;29;20039;-86
2023/08/20 09:29:24;;;;;;;7.45;3.72;;;29.30;99.90;;;;;;4897179;29;20582;-87
2023/08/20 09:31:50;;;;;;;6.03;3.60;;;29.50;99.90;;;;;;4897841;29;20158;-87
2023/08/20 09:34:15;;;;;;;7.15;3.45;;;29.80;99.90;;;;;;4895698;29;20082;-87
2023/08/20 09:36:43;;;;;;;6.70;3.60;;;30.00;99.90;;;;;;4895501;29;20021;-86
2023/08/20 09:39:08;;;;;;;7.05;3.70;;;30.30;99.90;;;;;;4896974;29;20020;-87
2023/08/20 09:41:35;;;;;;;6.85;3.40;;;30.50;99.90;;;;;;4897537;29;20070;-87
2023/08/20 09:44:04;;;;;;;5.32;3.72;;;30.70;99.90;;;;;;4896346;29;20036;-87
2023/08/20 09:46:32;;;;;;;7.50;3.22;;;30.90;99.90;;;;;;4896268;29;20055;-87
2023/08/20 09:48:58;;;;;;;6.10;3.40;;;31.30;99.90;;;;;;4896807;29;20088;-87
2023/08/20 09:51:28;;;;;;;5.68;3.10;;;31.50;99.90;;;;;;4898020;29;20156;-87
2023/08/20 09:54:19;;;;;;;7.75;3.50;;;31.80;99.90;;;;;;4896663;29;20052;-87
2023/08/20 09:56:49;;;;;;;7.10;2.95;;;31.70;99.90;;;;;;4897587;29;20028;-87
2023/08/20 09:59:17;;;;;;;8.55;3.10;;;31.80;99.90;;;;;;4897553;29;21397;-87
2023/08/20 10:01:43;;;;;;;6.43;3.08;;;31.90;99.90;;;;;;4900090;29;20151;-87
2023/08/20 10:04:10;;;;;;;8.40;3.10;;;32.00;99.90;;;;;;4900504;29;20119;-88
2023/08/20 10:06:37;;;;;;;4.88;2.75;;;32.10;99.90;;;;;;4899915;29;20052;-89
2023/08/20 10:09:03;;;;;;;6.90;3.13;;;32.30;99.60;;;;;;4897222;29;20044;-86
2023/08/20 10:11:29;;;;;;;6.60;3.33;;;32.70;98.90;;;;;;4898261;29;20096;-87
2023/08/20 10:13:54;;;;;;;7.70;3.08;;;32.80;98.80;;;;;;4897880;29;20123;-86
2023/08/20 10:16:21;;;;;;;5.78;3.45;;;32.90;99.90;;;;;;4895918;29;20028;-87
2023/08/20 10:18:47;;;;;;;8.00;3.00;;;33.00;99.90;;;;;;4896713;29;20076;-87
2023/08/20 10:21:13;;;;;;;8.60;3.13;;;33.10;98.90;;;;;;4897189;29;20539;-87
2023/08/20 10:23:42;;;;;;;5.85;3.75;;;33.00;98.20;;;;;;4897193;29;20032;-87
2023/08/20 10:26:09;;;;;;;3.58;2.80;;;33.00;98.20;;;;;;4899210;29;20123;-88
2023/08/20 10:28:35;;;;;;;6.95;3.33;;;33.10;97.10;;;;;;4896625;29;20043;-89
2023/08/20 10:31:11;;;;;;;6.20;3.10;;;33.20;95.70;;;;;;4897124;29;20020;-87
2023/08/20 10:33:38;;;;;;;9.05;3.38;;;33.10;96.60;;;;;;4896400;29;20028;-88
2023/08/20 10:36:15;;;;;;;5.63;3.00;;;33.10;97.00;;;;;;4895671;29;20029;-87
2023/08/20 10:38:40;;;;;;;7.05;2.95;;;33.20;97.40;;;;;;4896774;29;20092;-88
2023/08/20 10:41:08;;;;;;;5.25;2.75;;;33.30;95.70;;;;;;4898021;29;20805;-87
2023/08/20 10:43:40;;;;;;;9.65;3.30;;;33.20;95.20;;;;;;4896165;29;20488;-87
2023/08/20 10:46:21;;;;;;;6.70;3.15;;;33.20;95.30;;;;;;4896313;29;20119;-87
2023/08/20 10:48:58;;;;;;;5.68;2.88;;;33.40;96.30;;;;;;4897950;29;20035;-87
2023/08/20 10:51:36;;;;;;;7.07;2.97;;;33.70;95.10;;;;;;4897963;29;20032;-87
2023/08/20 10:54:01;;;;;;;6.60;3.25;;;33.70;93.10;;;;;;4901390;29;20056;-87
2023/08/20 10:56:46;;;;;;;4.35;3.30;;;33.90;94.40;;;;;;4900688;29;20443;-87
2023/08/20 10:59:27;;;;;;;8.32;3.22;;;34.10;93.20;;;;;;4900785;29;20107;-87
2023/08/20 11:01:55;;;;;;;7.10;3.05;;;34.10;92.50;;;;;;4899929;29;20380;-87
2023/08/20 11:04:28;;;;;;;5.97;3.08;;;34.30;92.20;;;;;;4900928;29;20107;-87
2023/08/20 11:06:58;;;;;;;11.13;3.07;;;34.40;92.30;;;;;;4900186;29;20028;-88
2023/08/20 11:09:29;;;;;;;5.80;3.08;;;34.60;91.40;;;;;;4901320;29;20025;-87
2023/08/20 11:11:55;;;;;;;5.68;2.83;;;34.50;92.10;;;;;;4900397;29;20028;-87
2023/08/20 11:14:21;;;;;;;4.18;2.85;;;34.50;91.50;;;;;;4900098;29;20031;-87
2023/08/20 11:16:50;;;;;;;6.10;2.97;;;34.60;92.40;;;;;;4899550;29;20031;-88
2023/08/20 11:19:22;;;;;;;8.00;3.28;;;34.70;92.40;;;;;;4899743;29;20032;-88
2023/08/20 11:21:48;;;;;;;6.97;3.13;;;34.60;92.10;;;;;;4899813;29;20512;-87
2023/08/20 11:24:14;;;;;;;7.57;2.75;;;34.70;92.20;;;;;;4899309;29;20498;-88
2023/08/20 11:26:40;;;;;;;8.23;3.13;;;34.70;92.40;;;;;;4901186;29;20039;-89
2023/08/20 11:29:07;;;;;;;6.90;3.30;;;34.80;90.40;;;;;;4898686;29;21673;-88
2023/08/20 11:31:33;;;;;;;5.45;2.80;;;34.70;91.90;;;;;;4899888;29;20032;-88
2023/08/20 11:33:58;;;;;;;8.57;3.22;;;34.80;91.80;;;;;;4900505;29;20079;-88
2023/08/20 11:36:24;;;;;;;6.82;3.00;;;35.00;91.60;;;;;;4899605;29;20025;-88
2023/08/20 11:38:52;;;;;;;7.72;3.22;;;35.10;92.20;;;;;;4898859;29;20111;-88
2023/08/20 11:41:18;;;;;;;6.75;3.20;;;35.00;90.40;;;;;;4899995;29;20028;-88
2023/08/20 11:43:44;;;;;;;7.80;3.15;;;35.00;92.20;;;;;;4897578;29;20036;-87
2023/08/20 11:46:14;;;;;;;7.40;3.00;;;35.00;90.40;;;;;;4899351;29;20024;-86
2023/08/20 11:49:08;;;;;;;6.45;2.72;;;35.30;91.10;;;;;;4898468;29;20094;-88
2023/08/20 11:51:42;;;;;;;7.60;3.10;;;35.40;89.60;;;;;;4898728;29;20583;-87
2023/08/20 11:54:12;;;;;;;5.95;2.78;;;35.70;89.80;;;;;;4898235;29;20477;-89
2023/08/20 11:56:44;;;;;;;7.50;2.60;;;35.90;88.40;;;;;;4899037;29;20131;-87
2023/08/20 11:59:11;;;;;;;7.68;2.88;;;35.70;86.70;;;;;;4899859;29;20036;-88
2023/08/20 12:01:37;;;;;;;7.63;3.40;;;35.70;88.50;;;;;;4898810;29;20031;-89
2023/08/20 12:04:07;;;;;;;5.57;3.00;;;35.70;83.70;;;;;;4898670;29;20039;-87
2023/08/20 12:06:34;;;;;;;7.22;2.80;;;35.80;86.80;;;;;;4900034;29;20577;-90
2023/08/20 12:09:00;;;;;;;6.30;2.70;;;36.10;86.90;;;;;;4898118;29;20032;-87
2023/08/20 12:11:29;;;;;;;5.45;2.95;;;36.10;86.10;;;;;;4898638;29;20055;-87
2023/08/20 12:13:55;;;;;;;4.15;2.47;;;36.10;85.50;;;;;;4898795;29;20368;-89
2023/08/20 12:16:23;;;;;;;7.07;2.70;;;36.20;85.70;;;;;;4899057;29;20039;-77
2023/08/20 12:18:49;;;;;;;5.63;2.92;;;36.40;82.10;;;;;;4898370;29;20580;-89
2023/08/20 12:21:15;;;;;;;5.45;2.60;;;36.40;80.60;;;;;;4899027;29;20032;-90
2023/08/20 12:23:41;;;;;;;4.75;2.80;;;36.30;80.70;;;;;;4898756;29;20040;-89
2023/08/20 12:26:07;;;;;;;5.53;2.90;;;36.10;81.50;;;;;;4898994;29;20109;-89
2023/08/20 12:28:33;;;;;;;4.95;2.80;;;35.70;81.30;;;;;;4898257;29;20025;-86
2023/08/20 12:30:59;;;;;;;7.70;2.60;;;35.70;83.90;;;;;;4899064;29;20537;-87
2023/08/20 12:33:24;;;;;;;9.70;2.92;;;35.70;81.70;;;;;;4898902;29;20984;-86
2023/08/20 12:35:53;;;;;;;4.75;2.80;;;35.80;79.90;;;;;;4898163;29;20542;-88
2023/08/20 12:38:19;;;;;;;5.05;2.75;;;35.70;80.30;;;;;;4896317;29;20870;-87
2023/08/20 12:40:44;;;;;;;8.73;2.85;;;35.70;80.40;;;;;;4896334;29;20053;-86
2023/08/20 12:43:10;;;;;;;4.60;2.45;;;35.70;80.10;;;;;;4898327;29;20024;-86